sensor_id;sensor_type;location;lat;lon;timestamp;pressure;altitude;pressure_sealevel;temperature;humidity
56402;BME280;42299;35.160;26.100;2024-03-02T00:00:30;100909.66;;;12.43;100.00
56402;BME280;42299;35.160;26.100;2024-03-02T00:05:54;100919.31;;;12.41;100.00
56402;BME280;42299;35.160;26.100;2024-03-02T00:11:18;100902.47;;;12.31;100.00
56402;BME280;42299;35.160;26.100;2024-03-02T00:16:41;100906.75;;;12.22;100.00
56402;BME280;42299;35.160;26.100;2024-03-02T00:22:04;100901.44;;;12.17;100.00
56402;BME280;42299;35.160;26.100;2024-03-02T00:27:28;100897.00;;;12.16;100.00
56402;BME280;42299;35.160;26.100;2024-03-02T00:32:51;100891.63;;;12.09;100.00
56402;BME280;42299;35.160;26.100;2024-03-02T00:38:14;100888.84;;;11.98;100.00
56402;BME280;42299;35.160;26.100;2024-03-02T00:43:51;100888.03;;;12.01;100.00
56402;BME280;42299;35.160;26.100;2024-03-02T00:49:20;100880.91;;;11.96;100.00
56402;BME280;42299;35.160;26.100;2024-03-02T00:54:43;100881.69;;;11.89;100.00
56402;BME280;42299;35.160;26.100;2024-03-02T01:00:09;100878.16;;;11.87;100.00
56402;BME280;42299;35.160;26.100;2024-03-02T01:05:36;100891.38;;;11.87;100.00
56402;BME280;42299;35.160;26.100;2024-03-02T01:10:58;100883.28;;;11.75;100.00
56402;BME280;42299;35.160;26.100;2024-03-02T01:16:22;100884.19;;;11.77;100.00
56402;BME280;42299;35.160;26.100;2024-03-02T01:21:45;100880.66;;;11.77;100.00
56402;BME280;42299;35.160;26.100;2024-03-02T01:27:08;100886.72;;;11.68;100.00
56402;BME280;42299;35.160;26.100;2024-03-02T01:32:32;100890.91;;;11.55;100.00
56402;BME280;42299;35.160;26.100;2024-03-02T01:37:54;100892.69;;;11.55;100.00
56402;BME280;42299;35.160;26.100;2024-03-02T01:43:17;100892.66;;;11.53;100.00
56402;BME280;42299;35.160;26.100;2024-03-02T01:48:41;100902.25;;;11.45;100.00
56402;BME280;42299;35.160;26.100;2024-03-02T01:54:03;100907.66;;;11.53;100.00
56402;BME280;42299;35.160;26.100;2024-03-02T01:59:26;100897.91;;;11.50;100.00
56402;BME280;42299;35.160;26.100;2024-03-02T02:04:51;100905.78;;;11.46;100.00
56402;BME280;42299;35.160;26.100;2024-03-02T02:10:14;100908.34;;;11.43;100.00
56402;BME280;42299;35.160;26.100;2024-03-02T02:15:37;100896.81;;;11.35;100.00
56402;BME280;42299;35.160;26.100;2024-03-02T02:21:01;100895.25;;;11.50;100.00
56402;BME280;42299;35.160;26.100;2024-03-02T02:26:25;100896.13;;;11.48;100.00
56402;BME280;42299;35.160;26.100;2024-03-02T02:31:50;100891.34;;;11.24;100.00
56402;BME280;42299;35.160;26.100;2024-03-02T02:37:13;100901.88;;;11.19;100.00
56402;BME280;42299;35.160;26.100;2024-03-02T02:42:37;100900.41;;;11.40;100.00
56402;BME280;42299;35.160;26.100;2024-03-02T02:48:00;100893.34;;;11.39;100.00
56402;BME280;42299;35.160;26.100;2024-03-02T02:53:23;100908.25;;;11.34;100.00
56402;BME280;42299;35.160;26.100;2024-03-02T02:58:47;100908.13;;;11.26;100.00
56402;BME280;42299;35.160;26.100;2024-03-02T03:04:10;100903.78;;;11.31;100.00
56402;BME280;42299;35.160;26.100;2024-03-02T03:09:32;100909.03;;;11.27;100.00
56402;BME280;42299;35.160;26.100;2024-03-02T03:14:56;100905.66;;;11.38;100.00
56402;BME280;42299;35.160;26.100;2024-03-02T03:20:19;100905.94;;;11.58;100.00
56402;BME280;42299;35.160;26.100;2024-03-02T03:25:42;100902.34;;;11.53;100.00
56402;BME280;42299;35.160;26.100;2024-03-02T03:31:06;100919.81;;;11.42;100.00
56402;BME280;42299;35.160;26.100;2024-03-02T03:36:29;100916.38;;;11.47;100.00
56402;BME280;42299;35.160;26.100;2024-03-02T03:41:51;100912.63;;;11.33;100.00
56402;BME280;42299;35.160;26.100;2024-03-02T03:47:15;100913.94;;;11.61;100.00
56402;BME280;42299;35.160;26.100;2024-03-02T03:52:38;100913.84;;;11.56;100.00
56402;BME280;42299;35.160;26.100;2024-03-02T03:58:00;100909.13;;;11.36;100.00
56402;BME280;42299;35.160;26.100;2024-03-02T04:03:24;100915.06;;;11.19;100.00
56402;BME280;42299;35.160;26.100;2024-03-02T04:08:46;100904.13;;;10.97;100.00
56402;BME280;42299;35.160;26.100;2024-03-02T04:14:09;100906.56;;;10.85;100.00
56402;BME280;42299;35.160;26.100;2024-03-02T04:19:33;100903.84;;;10.78;100.00
56402;BME280;42299;35.160;26.100;2024-03-02T04:24:55;100900.41;;;10.84;100.00
56402;BME280;42299;35.160;26.100;2024-03-02T04:30:18;100902.31;;;10.93;100.00
56402;BME280;42299;35.160;26.100;2024-03-02T04:35:42;100891.09;;;11.07;100.00
56402;BME280;42299;35.160;26.100;2024-03-02T04:41:05;100889.00;;;10.87;100.00
56402;BME280;42299;35.160;26.100;2024-03-02T04:46:28;100897.25;;;11.06;100.00
56402;BME280;42299;35.160;26.100;2024-03-02T04:51:52;100895.41;;;11.01;100.00
56402;BME280;42299;35.160;26.100;2024-03-02T04:57:14;100892.56;;;10.90;100.00
56402;BME280;42299;35.160;26.100;2024-03-02T05:02:36;100900.75;;;11.05;100.00
56402;BME280;42299;35.160;26.100;2024-03-02T05:08:00;100904.59;;;11.26;100.00
56402;BME280;42299;35.160;26.100;2024-03-02T05:13:23;100907.72;;;11.59;100.00
56402;BME280;42299;35.160;26.100;2024-03-02T05:18:46;100903.63;;;11.79;100.00
56402;BME280;42299;35.160;26.100;2024-03-02T05:24:10;100906.00;;;12.32;100.00
56402;BME280;42299;35.160;26.100;2024-03-02T05:29:32;100907.72;;;13.19;100.00
56402;BME280;42299;35.160;26.100;2024-03-02T05:34:55;100905.50;;;14.01;100.00
56402;BME280;42299;35.160;26.100;2024-03-02T05:40:19;100888.88;;;14.70;100.00
56402;BME280;42299;35.160;26.100;2024-03-02T05:45:41;100885.31;;;15.32;100.00
56402;BME280;42299;35.160;26.100;2024-03-02T05:51:04;100884.22;;;16.06;100.00
56402;BME280;42299;35.160;26.100;2024-03-02T05:56:28;100892.84;;;17.53;100.00
56402;BME280;42299;35.160;26.100;2024-03-02T06:01:50;100893.09;;;19.26;100.00
56402;BME280;42299;35.160;26.100;2024-03-02T06:07:13;100887.13;;;20.83;100.00
56402;BME280;42299;35.160;26.100;2024-03-02T06:12:37;100880.09;;;21.48;100.00
56402;BME280;42299;35.160;26.100;2024-03-02T06:17:59;100890.97;;;21.43;100.00
56402;BME280;42299;35.160;26.100;2024-03-02T06:23:22;100882.78;;;20.77;100.00
56402;BME280;42299;35.160;26.100;2024-03-02T06:28:46;100883.66;;;22.41;100.00
56402;BME280;42299;35.160;26.100;2024-03-02T06:34:09;100888.00;;;24.27;95.56
56402;BME280;42299;35.160;26.100;2024-03-02T06:39:31;100886.84;;;25.41;78.29
56402;BME280;42299;35.160;26.100;2024-03-02T06:44:56;100885.97;;;26.20;67.96
56402;BME280;42299;35.160;26.100;2024-03-02T06:50:19;100897.84;;;26.92;59.12
56402;BME280;42299;35.160;26.100;2024-03-02T06:55:41;100892.38;;;25.60;65.07
56402;BME280;42299;35.160;26.100;2024-03-02T07:01:06;100892.50;;;26.72;58.34
56402;BME280;42299;35.160;26.100;2024-03-02T07:06:29;100896.41;;;28.06;51.52
56402;BME280;42299;35.160;26.100;2024-03-02T07:11:51;100893.31;;;29.39;47.81
56402;BME280;42299;35.160;26.100;2024-03-02T07:17:15;100883.94;;;30.72;43.62
56402;BME280;42299;35.160;26.100;2024-03-02T07:22:38;100879.19;;;30.47;43.67
56402;BME280;42299;35.160;26.100;2024-03-02T07:28:00;100877.69;;;30.84;41.40
56402;BME280;42299;35.160;26.100;2024-03-02T07:33:25;100867.22;;;29.05;42.76
56402;BME280;42299;35.160;26.100;2024-03-02T07:38:47;100864.34;;;28.45;42.13
56402;BME280;42299;35.160;26.100;2024-03-02T07:44:11;100848.63;;;25.70;45.54
56402;BME280;42299;35.160;26.100;2024-03-02T07:49:37;100838.28;;;22.85;62.56
56402;BME280;42299;35.160;26.100;2024-03-02T07:54:59;100826.94;;;21.27;82.76
56402;BME280;42299;35.160;26.100;2024-03-02T08:00:22;100808.09;;;24.44;56.73
56402;BME280;42299;35.160;26.100;2024-03-02T08:05:48;100808.25;;;25.46;52.33
56402;BME280;42299;35.160;26.100;2024-03-02T08:11:10;100821.97;;;25.41;51.88
56402;BME280;42299;35.160;26.100;2024-03-02T08:16:33;100836.78;;;27.71;46.13
56402;BME280;42299;35.160;26.100;2024-03-02T08:21:57;100826.78;;;28.53;42.62
56402;BME280;42299;35.160;26.100;2024-03-02T08:27:21;100817.28;;;28.29;42.46
56402;BME280;42299;35.160;26.100;2024-03-02T08:32:43;100820.63;;;28.19;42.96
56402;BME280;42299;35.160;26.100;2024-03-02T08:38:09;100801.75;;;28.63;42.17
56402;BME280;42299;35.160;26.100;2024-03-02T08:43:32;100801.84;;;28.92;41.64
56402;BME280;42299;35.160;26.100;2024-03-02T08:48:55;100822.28;;;28.52;40.71
56402;BME280;42299;35.160;26.100;2024-03-02T08:54:19;100827.81;;;27.87;41.39
56402;BME280;42299;35.160;26.100;2024-03-02T08:59:41;100833.63;;;25.01;48.09
56402;BME280;42299;35.160;26.100;2024-03-02T09:05:05;100820.06;;;27.12;43.77
56402;BME280;42299;35.160;26.100;2024-03-02T09:10:31;100810.97;;;27.13;43.10
56402;BME280;42299;35.160;26.100;2024-03-02T09:15:53;100817.03;;;27.85;42.78
56402;BME280;42299;35.160;26.100;2024-03-02T09:21:16;100834.66;;;28.09;41.97
56402;BME280;42299;35.160;26.100;2024-03-02T09:26:40;100816.03;;;28.82;40.46
56402;BME280;42299;35.160;26.100;2024-03-02T09:32:02;100828.63;;;30.84;38.86
56402;BME280;42299;35.160;26.100;2024-03-02T09:37:25;100786.13;;;31.07;34.92
56402;BME280;42299;35.160;26.100;2024-03-02T09:42:51;100848.53;;;27.37;41.23
56402;BME280;42299;35.160;26.100;2024-03-02T09:48:14;100832.88;;;25.60;47.02
56402;BME280;42299;35.160;26.100;2024-03-02T09:53:40;100845.72;;;24.71;51.79
56402;BME280;42299;35.160;26.100;2024-03-02T09:59:04;100847.50;;;24.93;51.74
56402;BME280;42299;35.160;26.100;2024-03-02T10:04:28;100855.72;;;25.53;50.88
56402;BME280;42299;35.160;26.100;2024-03-02T10:09:50;100844.63;;;25.18;48.81
56402;BME280;42299;35.160;26.100;2024-03-02T10:15:23;100839.47;;;24.25;55.36
56402;BME280;42299;35.160;26.100;2024-03-02T10:20:46;100825.72;;;23.61;63.29
56402;BME280;42299;35.160;26.100;2024-03-02T10:26:16;100831.75;;;23.18;69.95
56402;BME280;42299;35.160;26.100;2024-03-02T10:31:42;100822.56;;;22.71;73.75
56402;BME280;42299;35.160;26.100;2024-03-02T10:37:05;100820.19;;;22.90;70.01
56402;BME280;42299;35.160;26.100;2024-03-02T10:42:29;100812.66;;;22.73;72.31
56402;BME280;42299;35.160;26.100;2024-03-02T10:47:53;100817.19;;;22.45;75.69
56402;BME280;42299;35.160;26.100;2024-03-02T10:53:15;100813.28;;;21.98;83.98
56402;BME280;42299;35.160;26.100;2024-03-02T10:58:38;100818.16;;;21.20;100.00
56402;BME280;42299;35.160;26.100;2024-03-02T11:04:04;100807.97;;;23.79;93.33
56402;BME280;42299;35.160;26.100;2024-03-02T11:09:33;100809.34;;;24.57;69.46
56402;BME280;42299;35.160;26.100;2024-03-02T11:14:56;100811.53;;;27.19;50.75
56402;BME280;42299;35.160;26.100;2024-03-02T11:20:22;100818.75;;;26.84;50.14
56402;BME280;42299;35.160;26.100;2024-03-02T11:25:45;100808.81;;;25.13;56.27
56402;BME280;42299;35.160;26.100;2024-03-02T11:31:08;100823.69;;;24.14;63.11
56402;BME280;42299;35.160;26.100;2024-03-02T11:36:32;100832.78;;;23.14;70.39
56402;BME280;42299;35.160;26.100;2024-03-02T11:41:56;100820.50;;;22.25;80.68
56402;BME280;42299;35.160;26.100;2024-03-02T11:47:18;100823.50;;;19.71;100.00
56402;BME280;42299;35.160;26.100;2024-03-02T11:52:43;100865.44;;;18.14;100.00
56402;BME280;42299;35.160;26.100;2024-03-02T11:58:09;100871.81;;;18.02;100.00
56402;BME280;42299;35.160;26.100;2024-03-02T12:03:34;100879.84;;;18.02;100.00
56402;BME280;42299;35.160;26.100;2024-03-02T12:08:59;100881.34;;;18.24;100.00
56402;BME280;42299;35.160;26.100;2024-03-02T12:14:22;100907.63;;;18.55;100.00
56402;BME280;42299;35.160;26.100;2024-03-02T12:19:45;100910.50;;;19.01;100.00
56402;BME280;42299;35.160;26.100;2024-03-02T12:25:09;100915.00;;;19.49;100.00
56402;BME280;42299;35.160;26.100;2024-03-02T12:30:35;100926.56;;;19.98;100.00
56402;BME280;42299;35.160;26.100;2024-03-02T12:35:57;100921.03;;;20.07;100.00
56402;BME280;42299;35.160;26.100;2024-03-02T12:41:22;100911.03;;;20.55;100.00
56402;BME280;42299;35.160;26.100;2024-03-02T12:46:46;100908.34;;;20.56;100.00
56402;BME280;42299;35.160;26.100;2024-03-02T12:52:08;100899.28;;;19.77;100.00
56402;BME280;42299;35.160;26.100;2024-03-02T12:57:33;100913.28;;;18.93;100.00
56402;BME280;42299;35.160;26.100;2024-03-02T13:02:56;100915.47;;;18.68;100.00
56402;BME280;42299;35.160;26.100;2024-03-02T13:08:22;100897.75;;;19.64;100.00
56402;BME280;42299;35.160;26.100;2024-03-02T13:13:47;100897.81;;;20.06;100.00
56402;BME280;42299;35.160;26.100;2024-03-02T13:19:09;100913.16;;;19.53;100.00
56402;BME280;42299;35.160;26.100;2024-03-02T13:24:33;100916.25;;;18.11;100.00
56402;BME280;42299;35.160;26.100;2024-03-02T13:29:57;100917.72;;;17.63;100.00
56402;BME280;42299;35.160;26.100;2024-03-02T13:35:19;100909.03;;;18.17;100.00
56402;BME280;42299;35.160;26.100;2024-03-02T13:40:42;100921.56;;;18.12;100.00
56402;BME280;42299;35.160;26.100;2024-03-02T13:46:06;100929.84;;;17.91;100.00
56402;BME280;42299;35.160;26.100;2024-03-02T13:51:30;100922.88;;;17.78;100.00
56402;BME280;42299;35.160;26.100;2024-03-02T13:56:54;100926.63;;;17.59;100.00
56402;BME280;42299;35.160;26.100;2024-03-02T14:02:18;100933.75;;;17.58;100.00
56402;BME280;42299;35.160;26.100;2024-03-02T14:07:41;100931.16;;;17.47;100.00
56402;BME280;42299;35.160;26.100;2024-03-02T14:13:04;100930.34;;;17.41;100.00
56402;BME280;42299;35.160;26.100;2024-03-02T14:18:28;100926.84;;;17.36;100.00
56402;BME280;42299;35.160;26.100;2024-03-02T14:23:50;100923.38;;;17.26;100.00
56402;BME280;42299;35.160;26.100;2024-03-02T14:29:12;100926.06;;;17.26;100.00
56402;BME280;42299;35.160;26.100;2024-03-02T14:34:36;100931.47;;;17.19;100.00
56402;BME280;42299;35.160;26.100;2024-03-02T14:39:59;100932.34;;;17.19;100.00
56402;BME280;42299;35.160;26.100;2024-03-02T14:45:21;100943.91;;;17.15;100.00
56402;BME280;42299;35.160;26.100;2024-03-02T14:50:46;100950.25;;;17.02;100.00
56402;BME280;42299;35.160;26.100;2024-03-02T14:56:08;100954.69;;;17.03;100.00
56402;BME280;42299;35.160;26.100;2024-03-02T15:01:31;100947.63;;;16.99;100.00
56402;BME280;42299;35.160;26.100;2024-03-02T15:06:55;100947.69;;;16.91;100.00
56402;BME280;42299;35.160;26.100;2024-03-02T15:12:18;100944.22;;;16.79;100.00
56402;BME280;42299;35.160;26.100;2024-03-02T15:17:40;100950.47;;;16.71;100.00
56402;BME280;42299;35.160;26.100;2024-03-02T15:23:05;100953.19;;;16.62;100.00
56402;BME280;42299;35.160;26.100;2024-03-02T15:28:28;100958.59;;;16.41;100.00
56402;BME280;42299;35.160;26.100;2024-03-02T15:33:51;100965.78;;;16.28;100.00
56402;BME280;42299;35.160;26.100;2024-03-02T15:39:15;100983.53;;;16.29;100.00
56402;BME280;42299;35.160;26.100;2024-03-02T15:44:39;100993.41;;;16.05;100.00
56402;BME280;42299;35.160;26.100;2024-03-02T15:50:02;100989.88;;;15.89;100.00
56402;BME280;42299;35.160;26.100;2024-03-02T15:55:26;100992.56;;;15.77;100.00
56402;BME280;42299;35.160;26.100;2024-03-02T16:00:48;101005.88;;;15.69;100.00
56402;BME280;42299;35.160;26.100;2024-03-02T16:06:11;101006.78;;;15.39;100.00
56402;BME280;42299;35.160;26.100;2024-03-02T16:11:35;101010.31;;;15.19;100.00
56402;BME280;42299;35.160;26.100;2024-03-02T16:16:58;101021.78;;;14.90;100.00
56402;BME280;42299;35.160;26.100;2024-03-02T16:22:20;101006.69;;;14.68;100.00
56402;BME280;42299;35.160;26.100;2024-03-02T16:27:44;101012.75;;;14.36;100.00
56402;BME280;42299;35.160;26.100;2024-03-02T16:33:09;101025.13;;;14.33;100.00
56402;BME280;42299;35.160;26.100;2024-03-02T16:38:32;101033.06;;;14.28;100.00
56402;BME280;42299;35.160;26.100;2024-03-02T16:43:56;101033.94;;;14.23;100.00
56402;BME280;42299;35.160;26.100;2024-03-02T16:49:18;101043.63;;;14.15;100.00
56402;BME280;42299;35.160;26.100;2024-03-02T16:54:41;101035.72;;;14.24;100.00
56402;BME280;42299;35.160;26.100;2024-03-02T17:00:06;101040.13;;;14.26;100.00
56402;BME280;42299;35.160;26.100;2024-03-02T17:05:29;101051.69;;;14.33;100.00
56402;BME280;42299;35.160;26.100;2024-03-02T17:10:52;101058.81;;;14.37;100.00
56402;BME280;42299;35.160;26.100;2024-03-02T17:16:17;101055.91;;;13.98;100.00
56402;BME280;42299;35.160;26.100;2024-03-02T17:21:41;101063.78;;;13.84;100.00
56402;BME280;42299;35.160;26.100;2024-03-02T17:27:04;101061.03;;;13.70;100.00
56402;BME280;42299;35.160;26.100;2024-03-02T17:32:28;101074.28;;;13.69;100.00
56402;BME280;42299;35.160;26.100;2024-03-02T17:37:51;101083.84;;;13.50;100.00
56402;BME280;42299;35.160;26.100;2024-03-02T17:43:14;101087.41;;;13.52;100.00
56402;BME280;42299;35.160;26.100;2024-03-02T17:48:38;101085.44;;;13.33;100.00
56402;BME280;42299;35.160;26.100;2024-03-02T17:54:01;101095.25;;;13.41;100.00
56402;BME280;42299;35.160;26.100;2024-03-02T17:59:23;101090.88;;;13.45;100.00
56402;BME280;42299;35.160;26.100;2024-03-02T18:04:47;101088.50;;;13.80;100.00
56402;BME280;42299;35.160;26.100;2024-03-02T18:10:10;101097.13;;;13.53;100.00
56402;BME280;42299;35.160;26.100;2024-03-02T18:15:32;101106.75;;;13.42;100.00
56402;BME280;42299;35.160;26.100;2024-03-02T18:20:56;101105.00;;;13.44;100.00
56402;BME280;42299;35.160;26.100;2024-03-02T18:26:19;101116.25;;;13.20;100.00
56402;BME280;42299;35.160;26.100;2024-03-02T18:31:42;101129.38;;;13.11;100.00
56402;BME280;42299;35.160;26.100;2024-03-02T18:37:06;101128.75;;;13.30;100.00
56402;BME280;42299;35.160;26.100;2024-03-02T18:42:29;101134.31;;;13.57;100.00
56402;BME280;42299;35.160;26.100;2024-03-02T18:47:51;101120.59;;;13.13;100.00
56402;BME280;42299;35.160;26.100;2024-03-02T18:53:16;101137.41;;;13.15;100.00
56402;BME280;42299;35.160;26.100;2024-03-02T18:58:38;101139.91;;;13.05;100.00
56402;BME280;42299;35.160;26.100;2024-03-02T19:04:01;101139.00;;;13.03;100.00
56402;BME280;42299;35.160;26.100;2024-03-02T19:09:25;101160.25;;;13.06;100.00
56402;BME280;42299;35.160;26.100;2024-03-02T19:14:47;101175.25;;;13.04;100.00
56402;BME280;42299;35.160;26.100;2024-03-02T19:20:10;101182.25;;;12.99;100.00
56402;BME280;42299;35.160;26.100;2024-03-02T19:25:35;101188.41;;;12.98;100.00
56402;BME280;42299;35.160;26.100;2024-03-02T19:30:57;101196.38;;;12.98;100.00
56402;BME280;42299;35.160;26.100;2024-03-02T19:36:20;101199.00;;;12.96;100.00
56402;BME280;42299;35.160;26.100;2024-03-02T19:41:44;101204.94;;;12.80;100.00
56402;BME280;42299;35.160;26.100;2024-03-02T19:47:07;101195.94;;;12.67;100.00
56402;BME280;42299;35.160;26.100;2024-03-02T19:52:29;101201.22;;;12.64;100.00
56402;BME280;42299;35.160;26.100;2024-03-02T19:57:53;101198.59;;;12.67;100.00
56402;BME280;42299;35.160;26.100;2024-03-02T20:03:16;101192.28;;;12.58;100.00
56402;BME280;42299;35.160;26.100;2024-03-02T20:08:38;101208.91;;;12.48;100.00
56402;BME280;42299;35.160;26.100;2024-03-02T20:14:02;101208.69;;;12.34;100.00
56402;BME280;42299;35.160;26.100;2024-03-02T20:19:25;101206.94;;;12.34;100.00
56402;BME280;42299;35.160;26.100;2024-03-02T20:24:47;101197.69;;;12.08;100.00
56402;BME280;42299;35.160;26.100;2024-03-02T20:30:14;101206.84;;;12.27;100.00
56402;BME280;42299;35.160;26.100;2024-03-02T20:35:37;101221.75;;;12.23;100.00
56402;BME280;42299;35.160;26.100;2024-03-02T20:40:59;101229.53;;;12.13;100.00
56402;BME280;42299;35.160;26.100;2024-03-02T20:46:23;101227.72;;;12.10;100.00
56402;BME280;42299;35.160;26.100;2024-03-02T20:51:46;101222.34;;;12.06;100.00
56402;BME280;42299;35.160;26.100;2024-03-02T20:57:09;101226.78;;;12.07;100.00
56402;BME280;42299;35.160;26.100;2024-03-02T21:02:33;101226.63;;;11.97;100.00
56402;BME280;42299;35.160;26.100;2024-03-02T21:07:56;101231.88;;;11.94;100.00
56402;BME280;42299;35.160;26.100;2024-03-02T21:13:18;101225.38;;;11.77;100.00
56402;BME280;42299;35.160;26.100;2024-03-02T21:18:42;101247.31;;;11.73;100.00
56402;BME280;42299;35.160;26.100;2024-03-02T21:24:05;101239.28;;;11.69;100.00
56402;BME280;42299;35.160;26.100;2024-03-02T21:29:27;101235.63;;;11.62;100.00
56402;BME280;42299;35.160;26.100;2024-03-02T21:34:52;101229.34;;;11.55;100.00
56402;BME280;42299;35.160;26.100;2024-03-02T21:40:14;101229.31;;;11.54;100.00
56402;BME280;42299;35.160;26.100;2024-03-02T21:45:37;101220.53;;;11.55;100.00
56402;BME280;42299;35.160;26.100;2024-03-02T21:51:01;101220.38;;;11.47;100.00
56402;BME280;42299;35.160;26.100;2024-03-02T21:56:23;101220.28;;;11.43;100.00
56402;BME280;42299;35.160;26.100;2024-03-02T22:01:47;101216.81;;;11.45;100.00
56402;BME280;42299;35.160;26.100;2024-03-02T22:07:11;101214.09;;;11.42;100.00
56402;BME280;42299;35.160;26.100;2024-03-02T22:12:33;101208.84;;;11.44;100.00
56402;BME280;42299;35.160;26.100;2024-03-02T22:17:56;101215.09;;;11.47;100.00
56402;BME280;42299;35.160;26.100;2024-03-02T22:23:22;101217.56;;;11.38;100.00
56402;BME280;42299;35.160;26.100;2024-03-02T22:28:45;101215.59;;;11.28;100.00
56402;BME280;42299;35.160;26.100;2024-03-02T22:34:07;101212.97;;;11.28;100.00
56402;BME280;42299;35.160;26.100;2024-03-02T22:39:31;101212.84;;;11.24;100.00
56402;BME280;42299;35.160;26.100;2024-03-02T22:44:54;101225.47;;;11.38;100.00
56402;BME280;42299;35.160;26.100;2024-03-02T22:50:16;101223.47;;;11.25;100.00
56402;BME280;42299;35.160;26.100;2024-03-02T22:55:40;101236.22;;;11.02;100.00
56402;BME280;42299;35.160;26.100;2024-03-02T23:01:03;101233.66;;;11.07;100.00
56402;BME280;42299;35.160;26.100;2024-03-02T23:06:29;101230.63;;;10.90;100.00
56402;BME280;42299;35.160;26.100;2024-03-02T23:11:53;101228.94;;;10.92;100.00
56402;BME280;42299;35.160;26.100;2024-03-02T23:17:16;101224.09;;;10.73;100.00
56402;BME280;42299;35.160;26.100;2024-03-02T23:22:38;101238.03;;;10.66;100.00
56402;BME280;42299;35.160;26.100;2024-03-02T23:28:05;101240.75;;;10.69;100.00
56402;BME280;42299;35.160;26.100;2024-03-02T23:33:28;101244.25;;;10.68;100.00
56402;BME280;42299;35.160;26.100;2024-03-02T23:38:51;101241.03;;;10.81;100.00
56402;BME280;42299;35.160;26.100;2024-03-02T23:44:16;101246.16;;;10.75;100.00
56402;BME280;42299;35.160;26.100;2024-03-02T23:49:39;101238.56;;;10.89;100.00
56402;BME280;42299;35.160;26.100;2024-03-02T23:55:01;101222.34;;;10.73;100.00
